Council, ID (83612)

4:26 AM MDT on April 23, 2017 (GMT -0600)
MCNCI1 | | Change Station

Elev 2948 ft 44.73 °N, 116.43 °W | Updated 1 hour ago

Mostly Cloudy
Mostly Cloudy
52.0 °F
Feels Like 52.0 °F
N
-
Wind Variable Wind from North

Today
High -- | Low -- °F
--% Chance of Precip.
Yesterday
High -- | Low -- °F
Precip. -- in
Pressure 29.81 in
Visibility 10.0 miles
Clouds Few 7500 ft
Mostly Cloudy 10000 ft
Dew Point Not available.
Humidity Not available.
Rainfall in
Snow Depth Not available.
6:47 AM 8:41 PM
Waning Crescent, 13% visible
METAR KONO 230953Z AUTO 02006KT 10SM FEW075 BKN100 12/06 A2982 RMK AO2 RAB05E37 SLP093 P0000 T01170056
Pressure 29.81 in
Visibility 10.0 miles
Clouds Few 7500 ft
Mostly Cloudy 10000 ft
Dew Point Not available.
Humidity Not available.
Rainfall in
Snow Depth Not available.
6:47 AM 8:41 PM
Waning Crescent, 13% visible
METAR KONO 230953Z AUTO 02006KT 10SM FEW075 BKN100 12/06 A2982 RMK AO2 RAB05E37 SLP093 P0000 T01170056

Get Severe Weather Alerts

Thanks for signing up!

Be on the lookout for a verification email in your inbox.

You'll start receiving the daily forecast at 8 AM.

×

10-Day Weather Forecast

Almanac

Astronomy

Apr. 23, 2017 Rise Set
Actual Time
Civil Twilight
Nautical Twilight
Astronomical Twilight
Moon
Length of Visible Light
Length of Day
Tomorrow will be .
, % of the Moon is Illuminated

Today's Extremes

State Highs State Lows

Community

WunderPhotos

WunderBlog® & News

Nearby

Air Quality

  Air Quality AQ Index Pollutant
Not available.

Snow Depth

Station Depth Elevation

Earthquake Activity

City Distance Mag. Time & Date
Minimum magnitude displayed is 2.5.

Coastal Water Temperatures

Place Temperature

Stations

Nearby Weather Stations

Station Location Temp. Windchill Dew Point Humidity Wind Precip. Elev Updated Type
                   

Watches & Warnings

There are currently no watches in effect.